CDT,Max TemperatureF,Mean TemperatureF,Min TemperatureF,Max Dew PointF,MeanDew PointF,Min DewpointF,Max Humidity, Mean Humidity, Min Humidity, Max Sea Level PressureIn, Mean Sea Level PressureIn, Min Sea Level PressureIn, Max VisibilityMiles, Mean VisibilityMiles, Min VisibilityMiles, Max Wind SpeedMPH, Mean Wind SpeedMPH, Max Gust SpeedMPH,PrecipitationIn, CloudCover, Events, WindDirDegrees
2013-10-1,82,66,51,52,45,30,82,53,16,30.00,29.91,29.79,10,9,3,12,6,16,0.00,0,,256
2013-10-2,84,68,51,63,54,45,82,63,37,30.02,29.95,29.86,10,9,1,14,3,21,0.00,1,,165
2013-10-3,78,69,60,61,58,55,83,70,44,29.88,29.82,29.77,10,10,7,12,2,,0.00,2,,107
2013-10-4,77,70,60,68,61,48,88,77,63,29.90,29.81,29.69,10,9,2,20,8,26,0.00,4,,127
2013-10-5,60,50,41,48,34,28,76,58,38,29.92,29.86,29.79,10,10,10,21,8,29,0.00,3,,228
2013-10-6,48,44,39,45,40,34,87,81,70,29.97,29.82,29.75,10,7,2,14,7,23,0.00,7,,292
2013-10-7,73,56,39,43,36,27,87,58,19,30.07,30.02,29.97,10,10,10,12,4,17,0.00,0,,269
2013-10-8,77,60,42,45,39,30,81,52,18,30.03,30.00,29.94,10,10,7,24,7,31,0.03,0,,178
2013-10-9,75,63,51,48,45,36,77,57,25,30.06,30.03,30.00,10,10,10,15,8,20,0.00,0,,168
2013-10-10,78,61,44,52,45,39,82,61,28,30.05,29.98,29.86,10,10,7,18,4,24,0.00,0,,162
2013-10-11,73,64,53,59,53,41,82,69,55,29.88,29.78,29.69,10,10,7,23,10,33,0.00,1,,170
2013-10-12,66,50,35,43,32,14,81,53,14,30.29,30.10,29.89,10,10,10,14,3,20,0.00,0,,287
2013-10-13,66,48,30,39,29,23,86,58,19,30.44,30.37,30.29,10,10,5,9,2,,0.00,0,,112
2013-10-14,64,52,39,52,38,27,88,61,29,30.33,30.09,29.77,10,10,3,21,7,28,0.81,4,Rain,137
2013-10-15,59,52,44,54,41,37,88,76,66,30.00,29.88,29.76,10,9,4,18,10,25,0.01,8,Rain,255
2013-10-16,53,43,33,39,36,28,87,73,44,30.05,30.00,29.97,10,9,3,9,6,,0.00,5,,300
2013-10-17,62,46,30,43,33,25,87,67,24,30.01,29.91,29.86,10,9,4,16,3,24,0.00,2,,292
2013-10-18,51,43,35,36,29,23,81,63,35,30.10,30.03,29.98,10,10,10,9,5,17,0.00,1,,291
2013-10-19,59,46,32,36,28,14,81,62,17,29.97,29.87,29.80,10,10,10,13,6,23,0.00,3,,247
2013-10-20,62,48,35,37,35,28,81,61,27,29.99,29.80,29.71,10,10,10,15,4,24,0.00,4,,299
2013-10-21,50,42,33,36,29,19,76,61,32,30.08,30.02,29.96,10,10,10,14,6,20,0.00,6,Rain,300
2013-10-22,42,38,35,37,33,28,87,77,65,30.10,29.98,29.86,10,10,4,14,4,21,0.01,8,Rain,344
2013-10-23,41,34,26,36,30,21,87,80,70,30.19,30.10,30.07,10,9,3,9,2,17,0.06,5,Rain-Snow,279
2013-10-24,46,36,26,30,25,19,86,66,37,30.38,30.31,30.18,10,10,7,13,5,21,0.00,2,,312
2013-10-25,55,39,23,28,24,18,80,56,30,30.39,30.25,30.04,10,10,7,20,5,28,0.00,1,,203
2013-10-26,51,38,24,32,26,19,80,58,35,30.19,30.12,29.99,10,10,10,18,7,24,0.00,0,,315
2013-10-27,64,42,21,36,25,16,86,59,22,30.12,29.97,29.85,10,10,10,17,3,22,0.00,0,,193
2013-10-28,53,44,35,36,32,30,81,65,44,30.27,30.17,30.00,10,10,10,17,7,24,0.00,0,,52
2013-10-29,51,45,39,46,40,32,87,78,70,30.24,30.08,29.99,10,7,2,13,9,17,0.02,3,Rain,100
2013-10-30,64,54,44,57,49,39,88,82,73,29.99,29.86,29.73,10,5,0,15,5,20,0.78,7,Fog-Rain,119
2013-10-31,53,45,37,43,37,34,87,77,62,29.73,29.59,29.48,10,8,2,10,4,,0.00,3,,278